sensor_id;sensor_type;location;lat;lon;timestamp;P1;durP1;ratioP1;P2;durP2;ratioP2
51764;SDS011;37835;53.256;6.456;2023-04-08T00:00:35;12.38;;;8.52;;
51764;SDS011;37835;53.256;6.456;2023-04-08T00:03:01;11.18;;;8.52;;
51764;SDS011;37835;53.256;6.456;2023-04-08T00:05:26;13.20;;;9.57;;
51764;SDS011;37835;53.256;6.456;2023-04-08T00:07:52;10.75;;;8.95;;
51764;SDS011;37835;53.256;6.456;2023-04-08T00:10:18;13.48;;;9.10;;
51764;SDS011;37835;53.256;6.456;2023-04-08T00:12:43;12.88;;;9.85;;
51764;SDS011;37835;53.256;6.456;2023-04-08T00:15:09;13.55;;;9.30;;
51764;SDS011;37835;53.256;6.456;2023-04-08T00:17:35;12.82;;;9.35;;
51764;SDS011;37835;53.256;6.456;2023-04-08T00:20:01;12.73;;;9.23;;
51764;SDS011;37835;53.256;6.456;2023-04-08T00:22:27;12.10;;;10.27;;
51764;SDS011;37835;53.256;6.456;2023-04-08T00:24:52;11.85;;;9.77;;
51764;SDS011;37835;53.256;6.456;2023-04-08T00:27:18;12.75;;;9.52;;
51764;SDS011;37835;53.256;6.456;2023-04-08T00:29:43;16.73;;;10.63;;
51764;SDS011;37835;53.256;6.456;2023-04-08T00:32:09;16.33;;;10.48;;
51764;SDS011;37835;53.256;6.456;2023-04-08T00:34:34;13.32;;;10.68;;
51764;SDS011;37835;53.256;6.456;2023-04-08T00:37:01;13.10;;;10.02;;
51764;SDS011;37835;53.256;6.456;2023-04-08T00:39:27;15.27;;;11.38;;
51764;SDS011;37835;53.256;6.456;2023-04-08T00:41:52;14.63;;;10.38;;
51764;SDS011;37835;53.256;6.456;2023-04-08T00:44:18;13.35;;;10.30;;
51764;SDS011;37835;53.256;6.456;2023-04-08T00:46:43;12.70;;;10.43;;
51764;SDS011;37835;53.256;6.456;2023-04-08T00:49:09;14.27;;;11.48;;
51764;SDS011;37835;53.256;6.456;2023-04-08T00:51:35;15.77;;;11.73;;
51764;SDS011;37835;53.256;6.456;2023-04-08T00:54:01;14.98;;;11.48;;
51764;SDS011;37835;53.256;6.456;2023-04-08T00:56:28;14.25;;;12.05;;
51764;SDS011;37835;53.256;6.456;2023-04-08T00:58:55;15.07;;;11.50;;
51764;SDS011;37835;53.256;6.456;2023-04-08T01:01:25;16.90;;;11.23;;
51764;SDS011;37835;53.256;6.456;2023-04-08T01:04:13;17.98;;;11.80;;
51764;SDS011;37835;53.256;6.456;2023-04-08T01:07:12;16.90;;;12.35;;
51764;SDS011;37835;53.256;6.456;2023-04-08T01:09:44;17.25;;;12.82;;
51764;SDS011;37835;53.256;6.456;2023-04-08T01:12:12;20.73;;;12.27;;
51764;SDS011;37835;53.256;6.456;2023-04-08T01:14:43;17.33;;;13.05;;
51764;SDS011;37835;53.256;6.456;2023-04-08T01:17:11;19.75;;;12.52;;
51764;SDS011;37835;53.256;6.456;2023-04-08T01:19:38;15.68;;;12.65;;
51764;SDS011;37835;53.256;6.456;2023-04-08T01:24:46;17.08;;;12.68;;
51764;SDS011;37835;53.256;6.456;2023-04-08T01:27:15;19.30;;;13.25;;
51764;SDS011;37835;53.256;6.456;2023-04-08T01:29:41;15.73;;;13.40;;
51764;SDS011;37835;53.256;6.456;2023-04-08T01:32:08;18.45;;;13.15;;
51764;SDS011;37835;53.256;6.456;2023-04-08T01:34:35;17.45;;;13.52;;
51764;SDS011;37835;53.256;6.456;2023-04-08T01:37:04;19.15;;;13.60;;
51764;SDS011;37835;53.256;6.456;2023-04-08T01:39:31;18.92;;;14.18;;
51764;SDS011;37835;53.256;6.456;2023-04-08T01:41:59;18.40;;;14.18;;
51764;SDS011;37835;53.256;6.456;2023-04-08T01:44:26;19.55;;;14.70;;
51764;SDS011;37835;53.256;6.456;2023-04-08T01:46:52;18.60;;;14.50;;
51764;SDS011;37835;53.256;6.456;2023-04-08T01:49:19;18.95;;;13.50;;
51764;SDS011;37835;53.256;6.456;2023-04-08T01:51:47;20.40;;;14.80;;
51764;SDS011;37835;53.256;6.456;2023-04-08T01:54:15;21.95;;;15.77;;
51764;SDS011;37835;53.256;6.456;2023-04-08T01:56:41;22.83;;;15.05;;
51764;SDS011;37835;53.256;6.456;2023-04-08T01:59:10;20.17;;;15.13;;
51764;SDS011;37835;53.256;6.456;2023-04-08T02:01:40;20.55;;;15.52;;
51764;SDS011;37835;53.256;6.456;2023-04-08T02:04:07;22.17;;;16.23;;
51764;SDS011;37835;53.256;6.456;2023-04-08T02:06:33;20.77;;;15.98;;
51764;SDS011;37835;53.256;6.456;2023-04-08T02:08:59;21.40;;;15.93;;
51764;SDS011;37835;53.256;6.456;2023-04-08T02:11:25;24.13;;;17.00;;
51764;SDS011;37835;53.256;6.456;2023-04-08T02:13:52;21.15;;;16.45;;
51764;SDS011;37835;53.256;6.456;2023-04-08T02:16:21;26.58;;;16.55;;
51764;SDS011;37835;53.256;6.456;2023-04-08T02:18:57;23.40;;;17.00;;
51764;SDS011;37835;53.256;6.456;2023-04-08T02:21:31;22.20;;;16.92;;
51764;SDS011;37835;53.256;6.456;2023-04-08T02:24:03;24.02;;;16.75;;
51764;SDS011;37835;53.256;6.456;2023-04-08T02:26:32;20.02;;;15.88;;
51764;SDS011;37835;53.256;6.456;2023-04-08T02:29:00;23.45;;;17.55;;
51764;SDS011;37835;53.256;6.456;2023-04-08T02:31:28;23.55;;;17.25;;
51764;SDS011;37835;53.256;6.456;2023-04-08T02:33:53;24.63;;;17.40;;
51764;SDS011;37835;53.256;6.456;2023-04-08T02:36:20;24.38;;;17.10;;
51764;SDS011;37835;53.256;6.456;2023-04-08T02:38:47;24.30;;;18.27;;
51764;SDS011;37835;53.256;6.456;2023-04-08T02:41:13;22.98;;;17.58;;
51764;SDS011;37835;53.256;6.456;2023-04-08T02:43:40;23.63;;;18.10;;
51764;SDS011;37835;53.256;6.456;2023-04-08T02:46:06;26.17;;;18.58;;
51764;SDS011;37835;53.256;6.456;2023-04-08T02:48:33;25.67;;;18.40;;
51764;SDS011;37835;53.256;6.456;2023-04-08T02:50:58;25.75;;;19.10;;
51764;SDS011;37835;53.256;6.456;2023-04-08T02:53:24;28.55;;;18.85;;
51764;SDS011;37835;53.256;6.456;2023-04-08T02:55:50;26.55;;;19.08;;
51764;SDS011;37835;53.256;6.456;2023-04-08T02:58:16;26.73;;;18.70;;
51764;SDS011;37835;53.256;6.456;2023-04-08T03:00:42;31.92;;;19.38;;
51764;SDS011;37835;53.256;6.456;2023-04-08T03:03:07;28.45;;;19.15;;
51764;SDS011;37835;53.256;6.456;2023-04-08T03:05:33;29.05;;;20.20;;
51764;SDS011;37835;53.256;6.456;2023-04-08T03:07:58;25.58;;;19.05;;
51764;SDS011;37835;53.256;6.456;2023-04-08T03:10:24;26.63;;;19.30;;
51764;SDS011;37835;53.256;6.456;2023-04-08T03:12:50;23.63;;;18.35;;
51764;SDS011;37835;53.256;6.456;2023-04-08T03:15:16;28.45;;;19.63;;
51764;SDS011;37835;53.256;6.456;2023-04-08T03:17:41;28.02;;;20.60;;
51764;SDS011;37835;53.256;6.456;2023-04-08T03:20:07;30.65;;;21.15;;
51764;SDS011;37835;53.256;6.456;2023-04-08T03:22:34;29.08;;;21.25;;
51764;SDS011;37835;53.256;6.456;2023-04-08T03:25:00;27.42;;;20.75;;
51764;SDS011;37835;53.256;6.456;2023-04-08T03:27:26;28.13;;;20.58;;
51764;SDS011;37835;53.256;6.456;2023-04-08T03:29:52;28.50;;;20.63;;
51764;SDS011;37835;53.256;6.456;2023-04-08T03:32:18;27.77;;;20.98;;
51764;SDS011;37835;53.256;6.456;2023-04-08T03:34:44;27.95;;;20.40;;
51764;SDS011;37835;53.256;6.456;2023-04-08T03:37:10;28.27;;;20.52;;
51764;SDS011;37835;53.256;6.456;2023-04-08T03:39:35;28.70;;;21.20;;
51764;SDS011;37835;53.256;6.456;2023-04-08T03:42:01;30.77;;;20.48;;
51764;SDS011;37835;53.256;6.456;2023-04-08T03:44:27;29.88;;;21.58;;
51764;SDS011;37835;53.256;6.456;2023-04-08T03:46:53;28.73;;;20.70;;
51764;SDS011;37835;53.256;6.456;2023-04-08T03:49:18;31.38;;;20.48;;
51764;SDS011;37835;53.256;6.456;2023-04-08T03:51:44;33.53;;;21.75;;
51764;SDS011;37835;53.256;6.456;2023-04-08T03:54:10;29.55;;;21.08;;
51764;SDS011;37835;53.256;6.456;2023-04-08T03:56:35;29.10;;;21.15;;
51764;SDS011;37835;53.256;6.456;2023-04-08T03:59:01;31.55;;;22.33;;
51764;SDS011;37835;53.256;6.456;2023-04-08T04:01:26;28.00;;;21.10;;
51764;SDS011;37835;53.256;6.456;2023-04-08T04:03:53;34.22;;;22.23;;
51764;SDS011;37835;53.256;6.456;2023-04-08T04:06:18;28.83;;;22.00;;
51764;SDS011;37835;53.256;6.456;2023-04-08T04:08:44;30.02;;;21.52;;
51764;SDS011;37835;53.256;6.456;2023-04-08T04:11:10;29.73;;;21.80;;
51764;SDS011;37835;53.256;6.456;2023-04-08T04:13:36;30.42;;;22.38;;
51764;SDS011;37835;53.256;6.456;2023-04-08T04:16:01;31.38;;;22.48;;
51764;SDS011;37835;53.256;6.456;2023-04-08T04:18:27;33.08;;;22.50;;
51764;SDS011;37835;53.256;6.456;2023-04-08T04:20:52;32.10;;;21.83;;
51764;SDS011;37835;53.256;6.456;2023-04-08T04:23:18;32.83;;;23.15;;
51764;SDS011;37835;53.256;6.456;2023-04-08T04:25:43;30.08;;;22.60;;
51764;SDS011;37835;53.256;6.456;2023-04-08T04:28:09;30.52;;;22.35;;
51764;SDS011;37835;53.256;6.456;2023-04-08T04:30:35;30.90;;;22.00;;
51764;SDS011;37835;53.256;6.456;2023-04-08T04:33:02;29.90;;;21.90;;
51764;SDS011;37835;53.256;6.456;2023-04-08T04:35:28;31.40;;;22.73;;
51764;SDS011;37835;53.256;6.456;2023-04-08T04:37:54;30.90;;;22.02;;
51764;SDS011;37835;53.256;6.456;2023-04-08T04:40:19;33.55;;;22.13;;
51764;SDS011;37835;53.256;6.456;2023-04-08T04:42:45;29.02;;;22.30;;
51764;SDS011;37835;53.256;6.456;2023-04-08T04:45:11;32.03;;;22.63;;
51764;SDS011;37835;53.256;6.456;2023-04-08T04:47:36;32.33;;;22.70;;
51764;SDS011;37835;53.256;6.456;2023-04-08T04:50:02;33.22;;;23.95;;
51764;SDS011;37835;53.256;6.456;2023-04-08T04:52:28;32.78;;;22.73;;
51764;SDS011;37835;53.256;6.456;2023-04-08T04:54:53;34.13;;;23.98;;
51764;SDS011;37835;53.256;6.456;2023-04-08T04:57:19;31.27;;;23.05;;
51764;SDS011;37835;53.256;6.456;2023-04-08T04:59:45;36.35;;;25.23;;
51764;SDS011;37835;53.256;6.456;2023-04-08T05:02:11;30.67;;;23.17;;
51764;SDS011;37835;53.256;6.456;2023-04-08T05:04:36;30.23;;;22.67;;
51764;SDS011;37835;53.256;6.456;2023-04-08T05:07:02;35.25;;;23.55;;
51764;SDS011;37835;53.256;6.456;2023-04-08T05:09:28;33.38;;;23.88;;
51764;SDS011;37835;53.256;6.456;2023-04-08T05:11:53;32.78;;;23.92;;
51764;SDS011;37835;53.256;6.456;2023-04-08T05:14:20;34.63;;;24.02;;
51764;SDS011;37835;53.256;6.456;2023-04-08T05:16:45;31.38;;;22.23;;
51764;SDS011;37835;53.256;6.456;2023-04-08T05:19:11;31.75;;;23.17;;
51764;SDS011;37835;53.256;6.456;2023-04-08T05:21:36;34.38;;;24.23;;
51764;SDS011;37835;53.256;6.456;2023-04-08T05:24:02;33.83;;;23.55;;
51764;SDS011;37835;53.256;6.456;2023-04-08T05:26:28;33.22;;;23.27;;
51764;SDS011;37835;53.256;6.456;2023-04-08T05:28:53;34.17;;;23.92;;
51764;SDS011;37835;53.256;6.456;2023-04-08T05:31:19;34.80;;;23.92;;
51764;SDS011;37835;53.256;6.456;2023-04-08T05:33:45;40.83;;;26.17;;
51764;SDS011;37835;53.256;6.456;2023-04-08T05:36:11;36.10;;;25.50;;
51764;SDS011;37835;53.256;6.456;2023-04-08T05:38:37;34.67;;;25.15;;
51764;SDS011;37835;53.256;6.456;2023-04-08T05:41:03;36.20;;;25.35;;
51764;SDS011;37835;53.256;6.456;2023-04-08T05:43:29;37.28;;;26.23;;
51764;SDS011;37835;53.256;6.456;2023-04-08T05:45:57;35.90;;;25.50;;
51764;SDS011;37835;53.256;6.456;2023-04-08T05:48:22;33.53;;;24.50;;
51764;SDS011;37835;53.256;6.456;2023-04-08T05:50:48;37.72;;;26.05;;
51764;SDS011;37835;53.256;6.456;2023-04-08T05:53:14;35.72;;;25.88;;
51764;SDS011;37835;53.256;6.456;2023-04-08T05:55:40;39.28;;;25.05;;
51764;SDS011;37835;53.256;6.456;2023-04-08T05:58:06;37.55;;;26.10;;
51764;SDS011;37835;53.256;6.456;2023-04-08T06:00:31;36.03;;;25.33;;
51764;SDS011;37835;53.256;6.456;2023-04-08T06:02:57;38.67;;;25.23;;
51764;SDS011;37835;53.256;6.456;2023-04-08T06:05:23;34.92;;;25.50;;
51764;SDS011;37835;53.256;6.456;2023-04-08T06:07:48;37.97;;;26.52;;
51764;SDS011;37835;53.256;6.456;2023-04-08T06:10:14;40.20;;;26.80;;
51764;SDS011;37835;53.256;6.456;2023-04-08T06:12:40;41.90;;;28.77;;
51764;SDS011;37835;53.256;6.456;2023-04-08T06:15:06;43.47;;;28.42;;
51764;SDS011;37835;53.256;6.456;2023-04-08T06:17:32;40.38;;;26.98;;
51764;SDS011;37835;53.256;6.456;2023-04-08T06:20:00;38.20;;;25.95;;
51764;SDS011;37835;53.256;6.456;2023-04-08T06:22:25;41.72;;;27.52;;
51764;SDS011;37835;53.256;6.456;2023-04-08T06:24:51;42.10;;;28.80;;
51764;SDS011;37835;53.256;6.456;2023-04-08T06:27:17;41.30;;;27.60;;
51764;SDS011;37835;53.256;6.456;2023-04-08T06:29:42;41.97;;;27.77;;
51764;SDS011;37835;53.256;6.456;2023-04-08T06:32:08;41.58;;;27.35;;
51764;SDS011;37835;53.256;6.456;2023-04-08T06:34:33;43.15;;;30.38;;
51764;SDS011;37835;53.256;6.456;2023-04-08T06:36:59;41.80;;;27.75;;
51764;SDS011;37835;53.256;6.456;2023-04-08T06:39:25;46.00;;;29.48;;
51764;SDS011;37835;53.256;6.456;2023-04-08T06:41:51;43.75;;;28.70;;
51764;SDS011;37835;53.256;6.456;2023-04-08T06:44:18;39.50;;;27.92;;
51764;SDS011;37835;53.256;6.456;2023-04-08T06:46:44;40.33;;;27.90;;
51764;SDS011;37835;53.256;6.456;2023-04-08T06:49:09;46.70;;;28.10;;
51764;SDS011;37835;53.256;6.456;2023-04-08T06:51:36;43.65;;;27.88;;
51764;SDS011;37835;53.256;6.456;2023-04-08T06:54:01;43.85;;;28.15;;
51764;SDS011;37835;53.256;6.456;2023-04-08T06:56:27;42.00;;;27.88;;
51764;SDS011;37835;53.256;6.456;2023-04-08T06:58:52;43.60;;;28.08;;
51764;SDS011;37835;53.256;6.456;2023-04-08T07:01:18;39.22;;;27.02;;
51764;SDS011;37835;53.256;6.456;2023-04-08T07:03:43;41.70;;;27.80;;
51764;SDS011;37835;53.256;6.456;2023-04-08T07:06:09;39.63;;;26.60;;
51764;SDS011;37835;53.256;6.456;2023-04-08T07:08:34;40.50;;;25.92;;
51764;SDS011;37835;53.256;6.456;2023-04-08T07:11:00;34.42;;;25.45;;
51764;SDS011;37835;53.256;6.456;2023-04-08T07:13:26;33.67;;;24.50;;
51764;SDS011;37835;53.256;6.456;2023-04-08T07:15:52;35.30;;;24.63;;
51764;SDS011;37835;53.256;6.456;2023-04-08T07:18:17;35.08;;;24.08;;
51764;SDS011;37835;53.256;6.456;2023-04-08T07:20:49;33.00;;;24.40;;
51764;SDS011;37835;53.256;6.456;2023-04-08T07:23:15;31.80;;;23.02;;
51764;SDS011;37835;53.256;6.456;2023-04-08T07:25:40;30.50;;;22.98;;
51764;SDS011;37835;53.256;6.456;2023-04-08T07:28:06;36.45;;;24.92;;
51764;SDS011;37835;53.256;6.456;2023-04-08T07:30:32;35.50;;;25.30;;
51764;SDS011;37835;53.256;6.456;2023-04-08T07:32:57;34.72;;;24.35;;
51764;SDS011;37835;53.256;6.456;2023-04-08T07:35:23;34.38;;;25.10;;
51764;SDS011;37835;53.256;6.456;2023-04-08T07:37:51;35.03;;;24.13;;
51764;SDS011;37835;53.256;6.456;2023-04-08T07:40:17;29.48;;;22.42;;
51764;SDS011;37835;53.256;6.456;2023-04-08T07:42:42;30.55;;;21.67;;
51764;SDS011;37835;53.256;6.456;2023-04-08T07:45:08;28.33;;;20.80;;
51764;SDS011;37835;53.256;6.456;2023-04-08T07:47:34;30.40;;;21.90;;
51764;SDS011;37835;53.256;6.456;2023-04-08T07:50:01;28.75;;;21.48;;
51764;SDS011;37835;53.256;6.456;2023-04-08T07:52:28;27.85;;;20.85;;
51764;SDS011;37835;53.256;6.456;2023-04-08T07:54:55;29.80;;;21.27;;
51764;SDS011;37835;53.256;6.456;2023-04-08T07:57:20;30.65;;;22.05;;
51764;SDS011;37835;53.256;6.456;2023-04-08T07:59:46;32.15;;;22.73;;
51764;SDS011;37835;53.256;6.456;2023-04-08T08:02:11;34.58;;;24.08;;
51764;SDS011;37835;53.256;6.456;2023-04-08T08:04:37;36.15;;;25.25;;
51764;SDS011;37835;53.256;6.456;2023-04-08T08:07:03;32.22;;;23.73;;
51764;SDS011;37835;53.256;6.456;2023-04-08T08:09:28;34.60;;;23.73;;
51764;SDS011;37835;53.256;6.456;2023-04-08T08:11:54;31.42;;;22.45;;
51764;SDS011;37835;53.256;6.456;2023-04-08T08:14:20;30.85;;;22.38;;
51764;SDS011;37835;53.256;6.456;2023-04-08T08:16:45;31.40;;;22.42;;
51764;SDS011;37835;53.256;6.456;2023-04-08T08:19:12;34.88;;;22.58;;
51764;SDS011;37835;53.256;6.456;2023-04-08T08:21:38;31.25;;;21.95;;
51764;SDS011;37835;53.256;6.456;2023-04-08T08:24:04;30.98;;;22.17;;
51764;SDS011;37835;53.256;6.456;2023-04-08T08:26:30;30.13;;;21.92;;
51764;SDS011;37835;53.256;6.456;2023-04-08T08:28:56;32.92;;;21.52;;
51764;SDS011;37835;53.256;6.456;2023-04-08T08:31:21;30.95;;;22.42;;
51764;SDS011;37835;53.256;6.456;2023-04-08T08:33:47;32.33;;;23.98;;
51764;SDS011;37835;53.256;6.456;2023-04-08T08:36:12;31.95;;;23.02;;
51764;SDS011;37835;53.256;6.456;2023-04-08T08:38:38;35.08;;;24.58;;
51764;SDS011;37835;53.256;6.456;2023-04-08T08:41:03;33.03;;;23.60;;
51764;SDS011;37835;53.256;6.456;2023-04-08T08:43:29;33.80;;;24.45;;
51764;SDS011;37835;53.256;6.456;2023-04-08T08:45:58;30.92;;;23.05;;
51764;SDS011;37835;53.256;6.456;2023-04-08T08:48:24;32.28;;;23.23;;
51764;SDS011;37835;53.256;6.456;2023-04-08T08:50:50;32.22;;;22.38;;
51764;SDS011;37835;53.256;6.456;2023-04-08T08:53:16;29.05;;;21.60;;
51764;SDS011;37835;53.256;6.456;2023-04-08T08:55:42;26.23;;;20.13;;
51764;SDS011;37835;53.256;6.456;2023-04-08T08:58:08;24.58;;;17.35;;
51764;SDS011;37835;53.256;6.456;2023-04-08T09:00:35;20.45;;;15.35;;
51764;SDS011;37835;53.256;6.456;2023-04-08T09:03:17;18.15;;;14.10;;
51764;SDS011;37835;53.256;6.456;2023-04-08T09:08:33;20.50;;;15.00;;
51764;SDS011;37835;53.256;6.456;2023-04-08T09:11:16;19.30;;;13.98;;
51764;SDS011;37835;53.256;6.456;2023-04-08T09:13:47;16.58;;;12.68;;
51764;SDS011;37835;53.256;6.456;2023-04-08T09:16:17;18.08;;;13.50;;
51764;SDS011;37835;53.256;6.456;2023-04-08T09:18:44;17.10;;;13.05;;
51764;SDS011;37835;53.256;6.456;2023-04-08T09:21:12;19.67;;;13.25;;
51764;SDS011;37835;53.256;6.456;2023-04-08T09:23:48;17.63;;;12.98;;
51764;SDS011;37835;53.256;6.456;2023-04-08T09:26:19;19.23;;;13.88;;
51764;SDS011;37835;53.256;6.456;2023-04-08T09:28:59;20.02;;;14.48;;
51764;SDS011;37835;53.256;6.456;2023-04-08T09:31:30;21.63;;;14.75;;
51764;SDS011;37835;53.256;6.456;2023-04-08T09:33:58;22.50;;;15.52;;
51764;SDS011;37835;53.256;6.456;2023-04-08T09:36:26;21.42;;;15.32;;
51764;SDS011;37835;53.256;6.456;2023-04-08T09:38:53;23.05;;;16.55;;
51764;SDS011;37835;53.256;6.456;2023-04-08T09:41:19;20.38;;;16.08;;
51764;SDS011;37835;53.256;6.456;2023-04-08T09:43:48;27.58;;;16.73;;
51764;SDS011;37835;53.256;6.456;2023-04-08T09:46:26;24.02;;;17.10;;
51764;SDS011;37835;53.256;6.456;2023-04-08T09:48:55;24.60;;;17.50;;
51764;SDS011;37835;53.256;6.456;2023-04-08T09:51:40;23.95;;;16.75;;
51764;SDS011;37835;53.256;6.456;2023-04-08T09:54:13;27.52;;;18.77;;
51764;SDS011;37835;53.256;6.456;2023-04-08T09:56:44;23.65;;;17.40;;
51764;SDS011;37835;53.256;6.456;2023-04-08T09:59:16;23.33;;;18.75;;
51764;SDS011;37835;53.256;6.456;2023-04-08T10:01:48;23.83;;;18.63;;
51764;SDS011;37835;53.256;6.456;2023-04-08T10:04:17;25.17;;;18.98;;
51764;SDS011;37835;53.256;6.456;2023-04-08T10:06:47;27.92;;;20.60;;
51764;SDS011;37835;53.256;6.456;2023-04-08T10:09:21;26.08;;;18.67;;
51764;SDS011;37835;53.256;6.456;2023-04-08T10:11:47;22.95;;;18.25;;
51764;SDS011;37835;53.256;6.456;2023-04-08T10:14:14;24.15;;;18.17;;
51764;SDS011;37835;53.256;6.456;2023-04-08T10:16:39;24.30;;;18.48;;
51764;SDS011;37835;53.256;6.456;2023-04-08T10:22:44;26.67;;;20.23;;
51764;SDS011;37835;53.256;6.456;2023-04-08T10:49:10;31.15;;;21.70;;
51764;SDS011;37835;53.256;6.456;2023-04-08T10:51:35;32.40;;;21.85;;
51764;SDS011;37835;53.256;6.456;2023-04-08T10:54:08;29.15;;;20.48;;
51764;SDS011;37835;53.256;6.456;2023-04-08T10:56:35;31.45;;;19.27;;
51764;SDS011;37835;53.256;6.456;2023-04-08T10:59:07;29.30;;;18.98;;
51764;SDS011;37835;53.256;6.456;2023-04-08T11:01:37;30.33;;;19.63;;
51764;SDS011;37835;53.256;6.456;2023-04-08T11:04:09;32.05;;;20.30;;
51764;SDS011;37835;53.256;6.456;2023-04-08T11:06:36;29.08;;;20.50;;
51764;SDS011;37835;53.256;6.456;2023-04-08T11:09:02;31.45;;;21.60;;
51764;SDS011;37835;53.256;6.456;2023-04-08T11:11:28;36.92;;;23.63;;
51764;SDS011;37835;53.256;6.456;2023-04-08T11:13:55;43.47;;;26.35;;
51764;SDS011;37835;53.256;6.456;2023-04-08T11:16:21;42.88;;;26.13;;
51764;SDS011;37835;53.256;6.456;2023-04-08T11:18:47;38.45;;;24.77;;
51764;SDS011;37835;53.256;6.456;2023-04-08T11:21:15;36.85;;;25.10;;
51764;SDS011;37835;53.256;6.456;2023-04-08T11:23:41;38.67;;;24.23;;
51764;SDS011;37835;53.256;6.456;2023-04-08T11:26:07;36.13;;;23.25;;
51764;SDS011;37835;53.256;6.456;2023-04-08T11:28:34;38.63;;;24.90;;
51764;SDS011;37835;53.256;6.456;2023-04-08T11:31:00;32.97;;;23.35;;
51764;SDS011;37835;53.256;6.456;2023-04-08T11:33:31;33.88;;;22.20;;
51764;SDS011;37835;53.256;6.456;2023-04-08T11:35:59;34.45;;;22.30;;
51764;SDS011;37835;53.256;6.456;2023-04-08T11:38:28;35.70;;;22.80;;
51764;SDS011;37835;53.256;6.456;2023-04-08T11:40:54;32.80;;;22.52;;
51764;SDS011;37835;53.256;6.456;2023-04-08T11:43:21;36.03;;;23.85;;
51764;SDS011;37835;53.256;6.456;2023-04-08T11:45:47;36.38;;;23.58;;
51764;SDS011;37835;53.256;6.456;2023-04-08T11:48:14;32.83;;;23.30;;
51764;SDS011;37835;53.256;6.456;2023-04-08T11:50:41;45.75;;;25.52;;
51764;SDS011;37835;53.256;6.456;2023-04-08T11:53:20;37.63;;;24.73;;
51764;SDS011;37835;53.256;6.456;2023-04-08T11:55:49;35.58;;;23.52;;
51764;SDS011;37835;53.256;6.456;2023-04-08T11:58:15;37.00;;;22.98;;
51764;SDS011;37835;53.256;6.456;2023-04-08T12:00:42;39.13;;;23.48;;
51764;SDS011;37835;53.256;6.456;2023-04-08T12:03:08;36.30;;;24.00;;
51764;SDS011;37835;53.256;6.456;2023-04-08T12:05:34;34.75;;;23.73;;
51764;SDS011;37835;53.256;6.456;2023-04-08T12:08:00;39.47;;;24.15;;
51764;SDS011;37835;53.256;6.456;2023-04-08T12:10:25;38.55;;;24.13;;
51764;SDS011;37835;53.256;6.456;2023-04-08T12:12:51;35.47;;;22.98;;
51764;SDS011;37835;53.256;6.456;2023-04-08T12:15:17;34.13;;;22.73;;
51764;SDS011;37835;53.256;6.456;2023-04-08T12:17:42;34.97;;;21.45;;
51764;SDS011;37835;53.256;6.456;2023-04-08T12:20:08;33.28;;;21.77;;
51764;SDS011;37835;53.256;6.456;2023-04-08T12:22:35;30.15;;;20.48;;
51764;SDS011;37835;53.256;6.456;2023-04-08T12:25:01;32.13;;;21.65;;
51764;SDS011;37835;53.256;6.456;2023-04-08T12:27:28;31.77;;;20.95;;
51764;SDS011;37835;53.256;6.456;2023-04-08T12:29:54;28.23;;;19.60;;
51764;SDS011;37835;53.256;6.456;2023-04-08T12:32:20;29.35;;;19.75;;
51764;SDS011;37835;53.256;6.456;2023-04-08T12:34:46;30.58;;;19.95;;
51764;SDS011;37835;53.256;6.456;2023-04-08T12:37:12;30.42;;;19.90;;
51764;SDS011;37835;53.256;6.456;2023-04-08T12:39:38;25.65;;;19.15;;
51764;SDS011;37835;53.256;6.456;2023-04-08T12:42:03;29.60;;;19.73;;
51764;SDS011;37835;53.256;6.456;2023-04-08T12:44:29;29.85;;;20.15;;
51764;SDS011;37835;53.256;6.456;2023-04-08T12:46:55;26.58;;;19.92;;
51764;SDS011;37835;53.256;6.456;2023-04-08T12:49:22;28.02;;;19.65;;
51764;SDS011;37835;53.256;6.456;2023-04-08T12:51:49;30.42;;;20.17;;
51764;SDS011;37835;53.256;6.456;2023-04-08T12:54:15;29.95;;;19.83;;
51764;SDS011;37835;53.256;6.456;2023-04-08T12:56:40;28.50;;;20.05;;
51764;SDS011;37835;53.256;6.456;2023-04-08T12:59:07;30.80;;;20.30;;
51764;SDS011;37835;53.256;6.456;2023-04-08T13:01:33;29.67;;;19.92;;
51764;SDS011;37835;53.256;6.456;2023-04-08T13:03:58;26.52;;;19.23;;
51764;SDS011;37835;53.256;6.456;2023-04-08T13:06:24;26.52;;;19.33;;
51764;SDS011;37835;53.256;6.456;2023-04-08T13:08:50;22.95;;;17.45;;
51764;SDS011;37835;53.256;6.456;2023-04-08T13:11:16;25.35;;;18.65;;
51764;SDS011;37835;53.256;6.456;2023-04-08T13:13:42;21.02;;;17.08;;
51764;SDS011;37835;53.256;6.456;2023-04-08T13:16:08;21.83;;;18.30;;
51764;SDS011;37835;53.256;6.456;2023-04-08T13:18:33;26.27;;;19.13;;
51764;SDS011;37835;53.256;6.456;2023-04-08T13:21:00;25.95;;;18.92;;
51764;SDS011;37835;53.256;6.456;2023-04-08T13:23:26;28.20;;;19.27;;
51764;SDS011;37835;53.256;6.456;2023-04-08T13:25:51;22.33;;;17.80;;
51764;SDS011;37835;53.256;6.456;2023-04-08T13:28:17;21.27;;;15.18;;
51764;SDS011;37835;53.256;6.456;2023-04-08T13:30:42;19.42;;;15.20;;
51764;SDS011;37835;53.256;6.456;2023-04-08T13:33:08;17.98;;;14.48;;
51764;SDS011;37835;53.256;6.456;2023-04-08T13:35:34;18.63;;;14.63;;
51764;SDS011;37835;53.256;6.456;2023-04-08T13:37:59;20.25;;;14.40;;
51764;SDS011;37835;53.256;6.456;2023-04-08T13:40:25;21.58;;;15.30;;
51764;SDS011;37835;53.256;6.456;2023-04-08T13:42:51;20.83;;;14.43;;
51764;SDS011;37835;53.256;6.456;2023-04-08T13:45:17;15.43;;;13.82;;
51764;SDS011;37835;53.256;6.456;2023-04-08T13:47:44;18.65;;;15.57;;
51764;SDS011;37835;53.256;6.456;2023-04-08T13:50:09;22.00;;;16.52;;
51764;SDS011;37835;53.256;6.456;2023-04-08T13:52:35;21.52;;;16.40;;
51764;SDS011;37835;53.256;6.456;2023-04-08T13:55:01;20.60;;;15.93;;
51764;SDS011;37835;53.256;6.456;2023-04-08T13:57:26;20.48;;;16.35;;
51764;SDS011;37835;53.256;6.456;2023-04-08T13:59:52;18.73;;;14.88;;
51764;SDS011;37835;53.256;6.456;2023-04-08T14:02:17;22.65;;;15.48;;
51764;SDS011;37835;53.256;6.456;2023-04-08T14:04:43;16.80;;;14.88;;
51764;SDS011;37835;53.256;6.456;2023-04-08T14:07:10;18.67;;;15.35;;
51764;SDS011;37835;53.256;6.456;2023-04-08T14:09:36;21.02;;;15.05;;
51764;SDS011;37835;53.256;6.456;2023-04-08T14:12:01;16.33;;;14.48;;
51764;SDS011;37835;53.256;6.456;2023-04-08T14:14:27;19.25;;;14.63;;
51764;SDS011;37835;53.256;6.456;2023-04-08T14:16:53;17.10;;;14.65;;
51764;SDS011;37835;53.256;6.456;2023-04-08T14:19:18;18.45;;;15.15;;
51764;SDS011;37835;53.256;6.456;2023-04-08T14:21:44;21.23;;;15.02;;
51764;SDS011;37835;53.256;6.456;2023-04-08T14:24:09;22.45;;;15.05;;
51764;SDS011;37835;53.256;6.456;2023-04-08T14:26:35;24.02;;;16.40;;
51764;SDS011;37835;53.256;6.456;2023-04-08T14:29:04;35.33;;;19.88;;
51764;SDS011;37835;53.256;6.456;2023-04-08T14:31:31;20.63;;;15.27;;
51764;SDS011;37835;53.256;6.456;2023-04-08T14:33:58;22.98;;;17.17;;
51764;SDS011;37835;53.256;6.456;2023-04-08T14:36:24;19.77;;;16.50;;
51764;SDS011;37835;53.256;6.456;2023-04-08T14:38:50;34.00;;;18.10;;
51764;SDS011;37835;53.256;6.456;2023-04-08T14:41:16;19.92;;;16.02;;
51764;SDS011;37835;53.256;6.456;2023-04-08T14:43:42;19.73;;;15.02;;
51764;SDS011;37835;53.256;6.456;2023-04-08T14:46:07;15.73;;;13.93;;
51764;SDS011;37835;53.256;6.456;2023-04-08T14:48:33;18.45;;;14.82;;
51764;SDS011;37835;53.256;6.456;2023-04-08T14:50:59;18.85;;;14.80;;